Time;durP1;ratioP1;P1;durP2;ratioP2;P2;SDS_P1;SDS_P2;PMS_P1;PMS_P2;Temp;Humidity;BMP_temperature;BMP_pressure;BME280_temperature;BME280_humidity;BME280_pressure;Samples;Min_cycle;Max_cycle;Signal;HPM_P1;HPM_P2
2023/10/06 00:01:01;;;;;;;3.92;3.58;;;16.60;99.90;;;;;;10252538;28;20686;-90
2023/10/06 00:06:04;;;;;;;5.95;5.28;;;17.00;99.90;;;;;;10251696;28;20963;-89
2023/10/06 00:11:15;;;;;;;5.05;4.63;;;16.90;99.90;;;;;;10250883;29;20226;-90
2023/10/06 00:16:19;;;;;;;5.55;4.25;;;16.40;99.90;;;;;;10252550;29;20245;-90
2023/10/06 00:21:21;;;;;;;5.70;4.57;;;16.40;99.90;;;;;;10251069;29;20258;-89
2023/10/06 00:26:26;;;;;;;6.05;4.78;;;16.60;99.90;;;;;;10252463;29;20332;-90
2023/10/06 00:31:31;;;;;;;7.97;4.15;;;16.60;99.90;;;;;;10234635;29;20230;-90
2023/10/06 00:36:35;;;;;;;5.00;3.95;;;16.40;99.90;;;;;;10251455;29;20634;-89
2023/10/06 00:41:43;;;;;;;6.22;4.63;;;16.40;99.90;;;;;;10250683;29;20206;-89
2023/10/06 00:46:46;;;;;;;4.82;4.32;;;16.30;99.90;;;;;;10251020;29;20254;-90
2023/10/06 00:51:49;;;;;;;7.05;5.85;;;16.40;99.90;;;;;;10251633;29;20657;-90
2023/10/06 00:56:57;;;;;;;5.68;5.13;;;16.10;99.90;;;;;;10234324;29;21001;-90
2023/10/06 01:02:00;;;;;;;11.65;4.82;;;16.00;99.90;;;;;;10252301;29;20251;-90
2023/10/06 01:07:03;;;;;;;7.20;6.05;;;15.90;99.90;;;;;;10247986;28;20265;-90
2023/10/06 01:12:10;;;;;;;14.65;9.70;;;15.60;99.90;;;;;;10251726;28;20631;-89
2023/10/06 01:17:16;;;;;;;12.55;7.32;;;15.10;99.90;;;;;;10249829;28;20304;-89
2023/10/06 01:22:28;;;;;;;12.27;9.52;;;15.10;99.90;;;;;;10251838;28;20300;-90
2023/10/06 01:27:31;;;;;;;8.38;7.35;;;15.10;99.90;;;;;;10249078;28;20273;-90
2023/10/06 01:32:34;;;;;;;12.95;8.43;;;14.80;99.90;;;;;;10252368;29;20257;-90
2023/10/06 01:37:36;;;;;;;10.32;5.85;;;15.10;99.90;;;;;;10259988;28;20191;-90
2023/10/06 01:42:39;;;;;;;12.23;8.35;;;15.30;99.90;;;;;;10303549;28;20402;-89
2023/10/06 01:47:42;;;;;;;4.93;4.07;;;15.40;99.90;;;;;;10302551;28;20253;-90
2023/10/06 01:52:44;;;;;;;10.30;7.30;;;15.30;99.90;;;;;;10302166;28;20231;-90
2023/10/06 01:57:47;;;;;;;11.68;8.38;;;14.60;99.90;;;;;;10302503;28;20186;-90
2023/10/06 02:02:50;;;;;;;11.25;7.72;;;15.00;99.90;;;;;;10285197;28;20182;-90
2023/10/06 02:08:00;;;;;;;11.05;9.10;;;15.00;99.90;;;;;;10301291;28;20210;-90
2023/10/06 02:13:07;;;;;;;6.43;4.78;;;14.70;99.90;;;;;;10302619;28;20214;-90
2023/10/06 02:18:12;;;;;;;4.65;3.25;;;14.50;99.90;;;;;;10301541;28;20202;-90
2023/10/06 02:23:16;;;;;;;10.52;7.32;;;14.80;99.90;;;;;;10261289;29;20191;-90
2023/10/06 02:28:20;;;;;;;6.03;4.68;;;14.60;99.90;;;;;;10277385;28;20231;-90
2023/10/06 02:33:24;;;;;;;7.78;6.53;;;15.20;99.90;;;;;;10262007;29;20211;-90
2023/10/06 02:38:38;;;;;;;11.02;8.18;;;15.20;99.90;;;;;;10276994;28;20215;-90
2023/10/06 02:43:40;;;;;;;14.32;9.27;;;14.80;99.90;;;;;;10297681;28;20190;-89
2023/10/06 02:48:49;;;;;;;11.75;9.13;;;14.00;99.90;;;;;;10316204;28;20254;-90
2023/10/06 02:53:53;;;;;;;11.02;8.18;;;13.90;99.90;;;;;;10300797;28;20214;-90
2023/10/06 02:59:06;;;;;;;10.88;8.25;;;13.80;99.90;;;;;;10300893;28;20178;-90
2023/10/06 03:04:11;;;;;;;12.15;8.13;;;13.70;99.90;;;;;;10300963;28;20213;-89
2023/10/06 03:09:14;;;;;;;10.38;7.95;;;13.40;99.90;;;;;;10299536;28;20210;-88
2023/10/06 03:14:24;;;;;;;6.90;5.82;;;13.20;99.90;;;;;;10299638;28;20190;-90
2023/10/06 03:19:32;;;;;;;8.25;6.13;;;13.60;99.90;;;;;;10298735;28;20229;-89
2023/10/06 03:24:43;;;;;;;5.22;3.22;;;13.60;99.90;;;;;;10296015;28;20221;-86
2023/10/06 03:29:51;;;;;;;5.65;4.53;;;14.00;99.90;;;;;;10263496;28;20266;-88
2023/10/06 03:34:57;;;;;;;10.20;7.78;;;14.30;99.90;;;;;;10270887;29;20198;-89
2023/10/06 03:40:10;;;;;;;9.82;6.30;;;14.60;99.90;;;;;;10269877;29;20234;-89
2023/10/06 03:45:31;;;;;;;11.75;9.05;;;14.70;99.90;;;;;;10284713;28;20210;-89
2023/10/06 03:50:46;;;;;;;15.60;11.20;;;14.90;99.90;;;;;;10268283;29;20233;-90
2023/10/06 03:55:48;;;;;;;11.68;9.27;;;14.40;99.90;;;;;;10268606;29;20202;-89
2023/10/06 04:00:52;;;;;;;10.45;7.45;;;13.90;99.90;;;;;;10268956;29;20210;-89
2023/10/06 04:05:54;;;;;;;14.65;10.55;;;14.10;99.90;;;;;;10269047;29;20615;-89
2023/10/06 04:10:59;;;;;;;12.98;8.85;;;14.70;99.90;;;;;;10270228;29;20226;-90
2023/10/06 04:16:02;;;;;;;14.20;9.30;;;14.70;99.90;;;;;;10268067;29;20241;-89
2023/10/06 04:21:11;;;;;;;10.60;7.70;;;15.40;99.90;;;;;;10268388;29;20397;-90
2023/10/06 04:26:14;;;;;;;5.70;4.32;;;14.60;99.90;;;;;;10268524;29;20210;-89
2023/10/06 04:31:18;;;;;;;7.07;6.38;;;14.80;99.90;;;;;;10265622;29;20631;-89
2023/10/06 04:36:23;;;;;;;17.38;11.35;;;14.50;99.90;;;;;;10267479;29;20566;-89
2023/10/06 04:41:25;;;;;;;13.82;9.50;;;15.00;99.90;;;;;;10258953;28;20215;-88
2023/10/06 04:46:28;;;;;;;18.10;9.73;;;14.80;99.90;;;;;;10261317;28;20261;-88
2023/10/06 04:51:34;;;;;;;13.00;8.80;;;14.50;99.90;;;;;;10260587;28;20654;-89
2023/10/06 04:56:36;;;;;;;8.32;6.07;;;14.40;99.90;;;;;;10263187;29;20238;-88
2023/10/06 05:01:39;;;;;;;11.02;7.53;;;14.90;99.90;;;;;;10275487;28;20203;-88
2023/10/06 05:06:41;;;;;;;8.13;5.05;;;15.10;99.90;;;;;;10246440;29;20246;-90
2023/10/06 05:11:46;;;;;;;3.40;3.10;;;15.30;99.90;;;;;;10259422;28;20293;-89
2023/10/06 05:16:51;;;;;;;8.20;5.63;;;14.90;99.90;;;;;;10253909;28;20206;-88
2023/10/06 05:21:54;;;;;;;5.43;4.47;;;15.10;99.90;;;;;;10254826;29;20203;-88
2023/10/06 05:26:56;;;;;;;3.83;3.03;;;15.20;99.90;;;;;;10253060;29;20209;-88
2023/10/06 05:31:59;;;;;;;3.25;2.42;;;15.40;99.90;;;;;;10237242;29;20286;-89
2023/10/06 05:37:02;;;;;;;16.42;9.30;;;16.30;99.90;;;;;;10253414;29;20577;-88
2023/10/06 05:42:08;;;;;;;3.58;3.00;;;15.90;99.90;;;;;;10253846;28;20199;-89
2023/10/06 05:47:11;;;;;;;7.38;6.18;;;15.70;99.90;;;;;;10255348;29;20613;-88
2023/10/06 05:52:13;;;;;;;6.22;5.55;;;15.10;99.90;;;;;;10254166;23;20263;-91
2023/10/06 05:57:16;;;;;;;8.30;4.40;;;14.80;99.90;;;;;;10253988;28;20210;-91
2023/10/06 06:02:19;;;;;;;8.07;4.43;;;16.00;99.90;;;;;;10254402;29;20206;-91
2023/10/06 06:07:23;;;;;;;8.48;7.18;;;16.20;99.90;;;;;;10253388;29;20222;-91
2023/10/06 06:12:27;;;;;;;6.63;5.93;;;15.80;99.90;;;;;;10252704;28;20259;-91
2023/10/06 06:17:30;;;;;;;5.63;3.60;;;15.00;99.90;;;;;;10251213;29;20206;-91
2023/10/06 06:22:36;;;;;;;4.05;3.22;;;15.70;99.90;;;;;;10251233;28;20288;-91
2023/10/06 06:27:39;;;;;;;8.70;7.03;;;15.40;99.90;;;;;;10251696;28;20226;-90
2023/10/06 06:32:42;;;;;;;12.50;8.93;;;15.40;99.90;;;;;;10268590;23;20206;-83
2023/10/06 06:37:51;;;;;;;9.27;7.28;;;15.60;99.90;;;;;;10267455;28;20649;-84
2023/10/06 06:42:55;;;;;;;11.20;6.93;;;14.60;99.90;;;;;;10268369;28;20291;-84
2023/10/06 06:48:02;;;;;;;13.20;5.63;;;15.20;99.90;;;;;;10273987;28;20276;-85
2023/10/06 06:53:06;;;;;;;11.93;7.47;;;15.40;99.90;;;;;;10282698;28;20600;-85
2023/10/06 06:58:10;;;;;;;13.23;7.70;;;15.90;99.90;;;;;;10272495;28;20292;-85
2023/10/06 07:03:14;;;;;;;19.13;8.02;;;16.30;99.90;;;;;;10284902;28;20299;-85
2023/10/06 07:08:17;;;;;;;6.88;5.28;;;16.00;99.90;;;;;;10287255;28;20253;-84
2023/10/06 07:13:22;;;;;;;5.65;4.03;;;16.00;99.90;;;;;;10286771;28;20256;-84
2023/10/06 07:18:26;;;;;;;5.72;4.22;;;16.50;99.90;;;;;;10299493;28;20233;-85
2023/10/06 07:23:29;;;;;;;7.25;4.68;;;17.00;99.90;;;;;;10259293;28;20237;-85
2023/10/06 07:28:32;;;;;;;11.25;6.97;;;17.70;99.90;;;;;;10286280;28;20327;-85
2023/10/06 07:33:34;;;;;;;4.80;3.70;;;17.90;98.70;;;;;;10281754;28;20257;-85
2023/10/06 07:38:37;;;;;;;4.72;3.13;;;18.40;99.90;;;;;;10280489;28;20245;-85
2023/10/06 07:43:40;;;;;;;5.43;4.38;;;18.90;99.50;;;;;;10282574;28;20646;-85
2023/10/06 07:48:46;;;;;;;6.70;4.78;;;18.90;96.90;;;;;;10269814;28;20281;-85
2023/10/06 07:53:49;;;;;;;9.82;5.85;;;18.30;96.40;;;;;;10249927;28;20341;-84
2023/10/06 07:58:52;;;;;;;9.20;5.35;;;18.30;97.00;;;;;;10282149;28;20624;-85
2023/10/06 08:03:55;;;;;;;7.05;5.82;;;18.10;97.70;;;;;;10283879;28;20296;-84
2023/10/06 08:08:57;;;;;;;4.75;4.10;;;17.90;97.50;;;;;;10283734;28;20245;-85
2023/10/06 08:14:00;;;;;;;8.27;5.30;;;18.30;99.90;;;;;;10284292;28;20684;-85
2023/10/06 08:19:03;;;;;;;6.75;3.95;;;18.30;97.20;;;;;;10291784;28;20245;-85
2023/10/06 08:24:06;;;;;;;6.72;3.90;;;18.00;99.50;;;;;;10277313;28;20249;-85
2023/10/06 08:29:09;;;;;;;8.32;5.22;;;18.00;99.60;;;;;;10250594;28;20836;-85
2023/10/06 08:34:12;;;;;;;9.93;3.95;;;17.90;97.90;;;;;;10252288;29;20230;-85
2023/10/06 08:39:14;;;;;;;8.18;4.80;;;17.80;99.30;;;;;;10251914;29;20683;-85
2023/10/06 08:44:19;;;;;;;8.77;4.55;;;17.90;99.90;;;;;;10266048;28;20242;-85
2023/10/06 08:49:22;;;;;;;6.53;5.78;;;17.70;99.90;;;;;;10286804;28;20260;-85
2023/10/06 08:54:26;;;;;;;7.30;4.95;;;17.80;99.90;;;;;;10285115;28;20225;-85
2023/10/06 08:59:31;;;;;;;5.75;5.07;;;18.10;99.80;;;;;;10297202;28;20286;-85
2023/10/06 09:04:37;;;;;;;11.75;5.90;;;18.00;99.90;;;;;;10283057;28;20307;-86
2023/10/06 09:09:43;;;;;;;9.63;4.63;;;17.80;99.30;;;;;;10254952;28;20245;-85
2023/10/06 09:14:56;;;;;;;6.07;4.30;;;18.00;99.90;;;;;;10284200;28;20670;-85
2023/10/06 09:19:59;;;;;;;5.88;4.47;;;18.20;99.90;;;;;;10280269;28;20268;-85
2023/10/06 09:25:05;;;;;;;5.20;4.05;;;18.50;99.90;;;;;;10288593;28;20232;-85
2023/10/06 09:30:16;;;;;;;3.10;2.10;;;19.00;99.60;;;;;;10287592;28;20312;-84
2023/10/06 09:35:22;;;;;;;10.90;5.28;;;19.50;99.90;;;;;;10288729;28;20269;-85
2023/10/06 09:40:32;;;;;;;3.60;3.30;;;19.40;97.50;;;;;;10288337;28;20292;-85
2023/10/06 09:45:36;;;;;;;5.60;3.72;;;19.40;99.00;;;;;;10265445;28;20629;-84
2023/10/06 09:50:41;;;;;;;3.65;2.67;;;19.70;97.60;;;;;;10247617;28;20732;-85
2023/10/06 09:55:44;;;;;;;6.43;3.03;;;19.60;99.30;;;;;;10286541;28;20287;-85
2023/10/06 10:00:49;;;;;;;7.35;5.28;;;19.90;98.50;;;;;;10287118;28;20688;-85
2023/10/06 10:05:53;;;;;;;8.27;5.78;;;20.00;96.10;;;;;;10274472;28;20706;-84
2023/10/06 10:11:01;;;;;;;4.15;3.33;;;20.10;95.60;;;;;;10280418;28;20257;-85
2023/10/06 10:16:18;;;;;;;3.97;2.95;;;20.60;95.40;;;;;;10286944;28;20221;-84
2023/10/06 10:21:22;;;;;;;7.40;5.43;;;20.50;95.50;;;;;;10287095;28;20657;-85
2023/10/06 10:26:28;;;;;;;3.28;2.97;;;20.60;93.90;;;;;;10284721;28;20229;-87
2023/10/06 10:31:42;;;;;;;4.15;2.97;;;20.70;96.30;;;;;;10275480;28;20257;-86
2023/10/06 10:37:05;;;;;;;4.28;3.55;;;20.90;96.10;;;;;;10246880;29;21013;-86
2023/10/06 10:42:08;;;;;;;5.07;3.88;;;20.80;95.30;;;;;;10259917;28;20237;-86
2023/10/06 10:47:11;;;;;;;13.40;9.55;;;20.70;94.80;;;;;;10274397;28;20238;-86
2023/10/06 10:52:14;;;;;;;8.02;6.93;;;20.60;92.30;;;;;;10257447;28;20249;-86
2023/10/06 10:57:21;;;;;;;5.47;4.47;;;20.50;94.80;;;;;;10282562;28;20626;-86
2023/10/06 11:02:24;;;;;;;3.28;2.80;;;20.60;96.10;;;;;;10284806;28;20260;-86
2023/10/06 11:07:27;;;;;;;6.97;5.13;;;20.70;96.50;;;;;;10283110;28;20296;-86
2023/10/06 11:12:30;;;;;;;14.07;9.73;;;20.80;95.50;;;;;;10260072;28;20269;-86
2023/10/06 11:17:33;;;;;;;7.35;6.63;;;20.60;93.80;;;;;;10249795;28;20233;-85
2023/10/06 11:22:37;;;;;;;8.25;5.75;;;21.00;94.50;;;;;;10281017;28;20315;-84
2023/10/06 11:28:00;;;;;;;6.88;6.28;;;20.90;94.30;;;;;;10282867;28;20695;-85
2023/10/06 11:33:05;;;;;;;5.53;5.03;;;20.90;94.60;;;;;;10283908;28;20256;-85
2023/10/06 11:38:11;;;;;;;8.48;7.55;;;20.70;94.60;;;;;;10283907;28;20683;-85
2023/10/06 11:43:21;;;;;;;8.18;7.35;;;20.80;94.40;;;;;;10280877;28;20237;-85
2023/10/06 11:48:34;;;;;;;4.10;3.55;;;20.50;94.30;;;;;;10283365;28;20261;-85
2023/10/06 11:53:39;;;;;;;8.57;7.72;;;20.70;96.00;;;;;;10291756;28;20236;-85
2023/10/06 11:58:44;;;;;;;4.80;4.13;;;20.50;94.10;;;;;;10291252;28;20639;-85
2023/10/06 12:03:47;;;;;;;5.20;4.72;;;20.50;95.40;;;;;;10290729;28;20292;-84
2023/10/06 12:08:52;;;;;;;3.33;3.03;;;20.60;95.60;;;;;;10267342;28;20281;-84
2023/10/06 12:13:54;;;;;;;7.50;5.38;;;21.00;94.60;;;;;;10277547;28;20241;-84
2023/10/06 12:18:57;;;;;;;3.90;3.47;;;20.90;93.30;;;;;;10260941;28;20202;-84
2023/10/06 12:24:00;;;;;;;3.67;3.28;;;20.90;94.00;;;;;;10290217;28;20245;-84
2023/10/06 12:29:02;;;;;;;7.60;5.95;;;21.20;94.30;;;;;;10283916;28;20666;-84
2023/10/06 12:34:05;;;;;;;5.38;4.68;;;21.20;92.50;;;;;;10279898;28;20260;-84
2023/10/06 12:39:15;;;;;;;3.10;1.65;;;21.40;92.50;;;;;;10248228;28;20293;-83
2023/10/06 12:44:17;;;;;;;2.92;2.72;;;21.70;93.90;;;;;;10249520;28;20242;-84
2023/10/06 12:49:21;;;;;;;4.95;3.72;;;21.70;91.90;;;;;;10271759;28;20328;-83
2023/10/06 12:54:26;;;;;;;4.82;3.67;;;21.60;92.50;;;;;;10248340;29;20304;-84
2023/10/06 12:59:29;;;;;;;4.15;2.75;;;21.60;92.90;;;;;;10275914;28;20240;-84
2023/10/06 13:04:32;;;;;;;3.22;2.85;;;21.20;93.60;;;;;;10285275;28;20248;-85
2023/10/06 13:09:36;;;;;;;5.07;3.55;;;21.30;94.10;;;;;;10286766;28;20265;-84
2023/10/06 13:14:39;;;;;;;3.10;2.80;;;21.00;94.00;;;;;;10288382;28;20242;-84
2023/10/06 13:19:41;;;;;;;16.23;4.75;;;21.00;94.50;;;;;;10287724;28;20702;-84
2023/10/06 13:24:44;;;;;;;3.45;3.13;;;20.70;94.00;;;;;;10288179;28;20268;-84
2023/10/06 13:29:46;;;;;;;2.72;2.53;;;20.90;94.90;;;;;;10286361;28;20334;-84
2023/10/06 13:34:50;;;;;;;3.88;3.50;;;20.80;94.80;;;;;;10285365;28;20269;-84
2023/10/06 13:39:53;;;;;;;5.05;2.92;;;20.40;94.40;;;;;;10288195;28;20662;-84
2023/10/06 13:44:55;;;;;;;5.55;4.43;;;19.70;95.70;;;;;;10285965;28;20245;-84
2023/10/06 13:49:58;;;;;;;7.38;4.15;;;19.30;96.50;;;;;;10282624;28;20307;-84
2023/10/06 13:55:01;;;;;;;8.05;4.35;;;19.00;98.00;;;;;;10286415;28;20710;-84
2023/10/06 14:00:07;;;;;;;7.10;4.28;;;18.50;99.90;;;;;;10262114;28;20315;-84
2023/10/06 14:05:14;;;;;;;8.40;4.70;;;18.40;99.90;;;;;;10246756;28;20312;-84
2023/10/06 14:10:21;;;;;;;7.05;4.50;;;18.00;99.90;;;;;;10262820;28;20724;-84
2023/10/06 14:15:30;;;;;;;8.68;5.20;;;17.90;99.90;;;;;;10267568;28;20683;-84
2023/10/06 14:20:33;;;;;;;5.18;4.63;;;17.80;99.90;;;;;;10275526;28;20616;-84
2023/10/06 14:25:36;;;;;;;10.10;5.88;;;17.80;99.90;;;;;;10275680;28;20291;-84
2023/10/06 14:30:44;;;;;;;8.35;4.85;;;17.90;99.90;;;;;;10254832;28;20261;-84
2023/10/06 14:46:23;;;;;;;6.53;3.90;;;17.70;99.90;;;;;;10269199;28;20288;-84
2023/10/06 14:51:25;;;;;;;4.93;3.80;;;18.10;99.90;;;;;;10282034;28;20696;-84
2023/10/06 14:56:28;;;;;;;5.85;3.42;;;18.10;99.90;;;;;;10266446;28;20924;-84
2023/10/06 15:01:31;;;;;;;4.78;3.10;;;18.60;99.90;;;;;;10271218;28;20286;-84
2023/10/06 15:06:35;;;;;;;5.50;3.80;;;18.80;99.90;;;;;;10275622;28;20233;-84
2023/10/06 15:11:40;;;;;;;4.10;3.00;;;18.80;99.90;;;;;;10279462;28;20261;-84
2023/10/06 15:16:43;;;;;;;4.00;3.50;;;19.00;99.90;;;;;;10255362;28;20668;-84
2023/10/06 15:21:46;;;;;;;5.45;3.72;;;18.90;99.90;;;;;;10274055;28;20241;-84
2023/10/06 15:26:49;;;;;;;5.32;3.60;;;18.80;99.90;;;;;;10272206;28;20284;-84
2023/10/06 15:31:53;;;;;;;12.25;3.80;;;18.80;99.90;;;;;;10271177;28;20307;-84
2023/10/06 15:36:56;;;;;;;5.22;3.30;;;18.90;99.30;;;;;;10267989;28;20754;-84
2023/10/06 15:41:58;;;;;;;9.00;4.10;;;19.10;99.90;;;;;;10288283;28;20209;-84
2023/10/06 15:47:01;;;;;;;3.88;3.47;;;19.00;98.90;;;;;;10291291;28;20293;-84
2023/10/06 15:52:04;;;;;;;6.18;3.45;;;18.90;99.30;;;;;;10292408;28;20265;-84
2023/10/06 15:57:09;;;;;;;4.97;3.33;;;19.20;99.90;;;;;;10291754;28;20233;-83
2023/10/06 16:02:13;;;;;;;6.60;4.38;;;19.20;98.80;;;;;;9931300;28;9999606;-84
2023/10/06 16:07:16;;;;;;;4.13;3.67;;;18.70;98.70;;;;;;9938809;28;9999794;-83
2023/10/06 16:12:18;;;;;;;3.10;2.80;;;18.80;99.50;;;;;;10288757;28;20261;-84
2023/10/06 16:17:21;;;;;;;4.28;3.50;;;18.60;99.90;;;;;;10288985;28;20225;-85
2023/10/06 16:22:23;;;;;;;4.40;3.53;;;18.80;99.90;;;;;;10288710;28;20303;-85
2023/10/06 16:27:26;;;;;;;7.47;3.97;;;18.80;99.90;;;;;;10288162;28;20241;-85
2023/10/06 16:32:29;;;;;;;5.20;3.38;;;18.80;99.50;;;;;;10289873;28;20288;-85
2023/10/06 16:37:32;;;;;;;7.40;4.07;;;18.60;99.80;;;;;;10302525;28;20898;-85
2023/10/06 16:42:36;;;;;;;4.53;3.80;;;18.60;99.90;;;;;;10288587;28;20284;-85
2023/10/06 16:47:40;;;;;;;4.15;3.25;;;18.60;99.90;;;;;;10283598;28;20249;-85
2023/10/06 16:52:43;;;;;;;6.53;4.70;;;18.60;99.90;;;;;;10281208;28;20261;-85
2023/10/06 16:57:46;;;;;;;2.92;2.63;;;18.90;99.30;;;;;;10287659;28;20225;-86
2023/10/06 17:02:49;;;;;;;6.63;4.07;;;18.70;99.90;;;;;;10284944;28;20256;-86
2023/10/06 17:07:52;;;;;;;4.13;3.72;;;18.90;99.90;;;;;;10286484;28;20245;-85
2023/10/06 17:13:00;;;;;;;8.68;3.60;;;19.50;99.90;;;;;;10288341;28;20257;-85
2023/10/06 17:18:03;;;;;;;4.38;2.72;;;19.60;97.60;;;;;;10289023;28;20233;-84
2023/10/06 17:23:05;;;;;;;7.25;3.70;;;19.30;99.80;;;;;;10287484;28;20237;-84
2023/10/06 17:28:09;;;;;;;4.13;3.70;;;19.40;96.40;;;;;;10269405;28;20296;-85
2023/10/06 17:33:11;;;;;;;4.72;3.17;;;19.30;97.50;;;;;;10248134;29;20249;-85
2023/10/06 17:38:14;;;;;;;3.58;3.10;;;19.10;99.60;;;;;;10248955;28;20304;-85
2023/10/06 17:43:17;;;;;;;4.05;3.45;;;19.90;98.90;;;;;;10254488;28;20229;-86
2023/10/06 17:48:19;;;;;;;2.63;2.42;;;20.10;97.70;;;;;;10287191;28;20727;-85
2023/10/06 17:53:22;;;;;;;4.45;3.13;;;20.30;97.30;;;;;;10284494;28;20265;-86
2023/10/06 17:58:25;;;;;;;5.25;3.33;;;20.50;96.80;;;;;;10274648;28;20242;-86
2023/10/06 18:03:28;;;;;;;4.32;3.13;;;20.60;95.60;;;;;;10274207;28;20284;-86
2023/10/06 18:08:32;;;;;;;3.40;2.63;;;20.50;94.70;;;;;;10286674;28;20237;-86
2023/10/06 18:13:35;;;;;;;3.90;3.40;;;20.50;96.20;;;;;;10262152;28;20774;-86
2023/10/06 18:18:40;;;;;;;5.32;3.72;;;20.30;94.70;;;;;;10270308;28;20238;-85
2023/10/06 18:23:45;;;;;;;4.68;3.75;;;20.50;95.80;;;;;;9585095;28;9999725;-87
2023/10/06 18:28:48;;;;;;;7.50;5.35;;;20.70;95.80;;;;;;10284467;28;20233;-86
2023/10/06 18:33:51;;;;;;;3.42;2.67;;;20.30;95.20;;;;;;10283673;28;20704;-85
2023/10/06 18:38:56;;;;;;;6.03;3.47;;;20.20;96.50;;;;;;10283485;28;20295;-86
2023/10/06 18:43:59;;;;;;;3.92;3.33;;;20.40;94.00;;;;;;10275829;28;20225;-85
2023/10/06 18:49:05;;;;;;;11.07;3.63;;;20.40;96.10;;;;;;10262402;28;20233;-84
2023/10/06 18:54:07;;;;;;;4.85;3.45;;;20.30;94.00;;;;;;10283904;28;20292;-83
2023/10/06 18:59:11;;;;;;;6.40;3.70;;;20.10;95.90;;;;;;10292120;28;20694;-84
2023/10/06 19:04:13;;;;;;;4.43;2.97;;;20.10;93.30;;;;;;10267279;28;20771;-84
2023/10/06 19:09:16;;;;;;;2.80;2.58;;;19.80;93.50;;;;;;10245321;28;20234;-84
2023/10/06 19:14:18;;;;;;;4.93;3.42;;;20.30;96.50;;;;;;10282380;28;20368;-84
2023/10/06 19:19:21;;;;;;;5.85;3.58;;;20.00;95.30;;;;;;10282414;28;20233;-84
2023/10/06 19:24:25;;;;;;;7.40;3.60;;;20.00;94.20;;;;;;10274972;28;20315;-84
2023/10/06 19:29:27;;;;;;;2.90;2.60;;;20.10;92.30;;;;;;10281756;28;20232;-83
2023/10/06 19:34:30;;;;;;;3.03;2.50;;;20.20;96.20;;;;;;10280777;28;20269;-83
2023/10/06 19:39:34;;;;;;;3.88;3.22;;;20.10;95.90;;;;;;10279978;28;20241;-83
2023/10/06 19:44:42;;;;;;;3.00;2.40;;;20.00;95.70;;;;;;10281410;28;20744;-83
2023/10/06 19:49:45;;;;;;;4.90;2.95;;;20.00;97.00;;;;;;10268869;28;20241;-83
2023/10/06 19:54:51;;;;;;;4.53;3.60;;;20.10;96.10;;;;;;10282473;28;20253;-83
2023/10/06 19:59:53;;;;;;;7.43;3.20;;;19.70;95.30;;;;;;10281846;28;20281;-84
2023/10/06 20:04:56;;;;;;;5.47;3.00;;;19.80;96.90;;;;;;10281631;28;20608;-83
2023/10/06 20:09:59;;;;;;;5.25;3.58;;;19.90;96.40;;;;;;10267637;28;20242;-84
2023/10/06 20:15:04;;;;;;;4.90;3.50;;;20.00;94.90;;;;;;10280839;28;20323;-84
2023/10/06 20:20:11;;;;;;;5.03;3.78;;;19.50;94.70;;;;;;10278569;28;20709;-84
2023/10/06 20:25:15;;;;;;;5.20;2.88;;;19.60;96.90;;;;;;10282026;28;20245;-84
2023/10/06 20:30:20;;;;;;;5.93;4.13;;;19.40;97.50;;;;;;10287953;28;20287;-84
2023/10/06 20:35:28;;;;;;;4.32;3.08;;;19.90;95.90;;;;;;10294480;28;20296;-84
2023/10/06 20:40:32;;;;;;;4.38;3.92;;;19.80;96.20;;;;;;10285244;28;20892;-84
2023/10/06 20:45:36;;;;;;;4.78;3.38;;;19.60;96.30;;;;;;10277030;28;20221;-84
2023/10/06 20:50:42;;;;;;;4.05;2.50;;;19.80;96.10;;;;;;10281535;28;20327;-84
2023/10/06 20:55:46;;;;;;;4.03;2.83;;;20.00;96.40;;;;;;10282414;28;20260;-85
2023/10/06 21:00:51;;;;;;;4.35;3.42;;;20.10;94.90;;;;;;10282221;28;20260;-84
2023/10/06 21:05:55;;;;;;;4.55;3.10;;;20.10;93.40;;;;;;10262728;28;20241;-84
2023/10/06 21:11:02;;;;;;;3.20;2.65;;;20.10;94.70;;;;;;10267002;28;20316;-84
2023/10/06 21:16:04;;;;;;;4.25;2.85;;;20.40;95.80;;;;;;10257715;28;20228;-84
2023/10/06 21:21:07;;;;;;;3.53;2.67;;;20.10;93.40;;;;;;10281562;28;20264;-86
2023/10/06 21:26:10;;;;;;;3.05;2.53;;;20.20;94.70;;;;;;10288222;28;20238;-85
2023/10/06 21:31:14;;;;;;;4.07;2.85;;;20.60;95.30;;;;;;10268856;28;20254;-86
2023/10/06 21:36:18;;;;;;;4.72;2.75;;;20.20;93.80;;;;;;10302857;28;20253;-85
2023/10/06 21:41:21;;;;;;;3.67;2.90;;;20.40;92.70;;;;;;10286857;28;20914;-85
2023/10/06 21:46:24;;;;;;;2.65;2.42;;;20.40;94.30;;;;;;10262093;28;20297;-86
2023/10/06 21:51:26;;;;;;;6.50;3.40;;;20.50;94.70;;;;;;10286561;28;20253;-85
2023/10/06 21:56:29;;;;;;;3.28;2.65;;;20.70;93.30;;;;;;10286125;28;20281;-85
2023/10/06 22:01:32;;;;;;;5.80;2.90;;;20.60;92.60;;;;;;10282670;28;20637;-86
2023/10/06 22:06:34;;;;;;;4.78;2.50;;;20.70;92.80;;;;;;10269473;28;20233;-86
2023/10/06 22:11:37;;;;;;;4.57;2.78;;;20.70;92.70;;;;;;10271536;28;20660;-86
2023/10/06 22:16:40;;;;;;;4.10;2.35;;;20.80;92.00;;;;;;10271600;28;20234;-87
2023/10/06 22:21:43;;;;;;;3.22;1.80;;;20.80;89.20;;;;;;10263387;28;20246;-87
2023/10/06 22:26:46;;;;;;;4.72;2.40;;;20.60;90.50;;;;;;10277233;28;20311;-86
2023/10/06 22:31:49;;;;;;;4.00;2.53;;;20.80;91.00;;;;;;10269697;28;20261;-86
2023/10/06 22:36:52;;;;;;;3.63;2.47;;;20.70;92.10;;;;;;10285452;28;20319;-87
2023/10/06 22:42:03;;;;;;;3.15;2.35;;;20.80;90.00;;;;;;10287092;28;20256;-87
2023/10/06 22:47:06;;;;;;;4.97;2.47;;;20.90;89.80;;;;;;10282192;28;20292;-86
2023/10/06 22:52:09;;;;;;;5.22;2.63;;;21.10;91.20;;;;;;10270820;28;20261;-86
2023/10/06 22:57:12;;;;;;;4.43;2.50;;;21.20;90.90;;;;;;10271297;28;20237;-86
2023/10/06 23:02:15;;;;;;;2.75;1.88;;;21.00;90.10;;;;;;10284046;28;20248;-86
2023/10/06 23:07:18;;;;;;;3.95;2.92;;;20.80;91.20;;;;;;10284783;28;20789;-87
2023/10/06 23:12:21;;;;;;;2.97;2.45;;;20.70;90.90;;;;;;10283838;28;20284;-86
2023/10/06 23:17:23;;;;;;;2.83;1.75;;;21.10;90.10;;;;;;10284127;28;20708;-86
2023/10/06 23:22:26;;;;;;;3.35;2.15;;;21.10;90.90;;;;;;10284791;28;20694;-86
2023/10/06 23:27:28;;;;;;;2.38;1.77;;;21.10;90.00;;;;;;10285927;28;20806;-86
2023/10/06 23:32:31;;;;;;;2.13;1.92;;;21.00;90.80;;;;;;10284554;28;20253;-87
2023/10/06 23:37:36;;;;;;;2.78;2.40;;;20.90;90.10;;;;;;10299345;28;20269;-87
2023/10/06 23:42:41;;;;;;;2.95;2.40;;;20.90;90.90;;;;;;10276781;28;20261;-86
2023/10/06 23:47:44;;;;;;;3.88;2.53;;;20.80;88.60;;;;;;10275047;28;20264;-86
2023/10/06 23:52:51;;;;;;;3.45;2.38;;;20.90;88.90;;;;;;10271484;28;20319;-86
2023/10/06 23:57:54;;;;;;;2.30;2.08;;;20.80;89.00;;;;;;10293431;28;20299;-87
